茨城 の空港の天気 - METARとTAF

茨城空港(百里飛行場) ( RJAH / IBR ) - 茨城県小美玉市
飛行場実況気象(Metar)
観測時間04/19 20:00 JST (04/19 11:00 UTC)
風向・風速南 2m/s
視程10km以上
天気現象
少しの雲 雲底高度 1220m
気温16℃
湿度77%
気圧1015hPa
METARRJAH 191100Z 17003KT 9999 FEW040 16/12 Q1015
過去の天気等 Google飛行場航空写真 Wunderground天気予報

過去48時間のMETAR

飛行場予報(TAF)
発表時間: 4/19 20:05 JST (4/19 11:05 UTC)
予報対象時間: 19日21時 JST ~ 21日3時 JST
風向・風速南南東 2m/s
視程10km以上
少しの雲 雲底高度 150m
19日23時 JST ~ 20日1時 JST に徐々に
視程4,000m
天気現象もや
20日4時 JST ~ 20日7時 JST に一時的に
視程1,500m
天気現象もや 散在した霧
20日7時 JST ~ 20日9時 JST に徐々に
風向・風速東北東 4m/s
視程10km以上
天気現象運行に影響にある天気現象が終了
TAF RJAH 191105Z 1912/2018 16004KT 9999 FEW005
BECMG 1914/1916 4000 BR
TEMPO 1919/1922 1500 BR BCFG
BECMG 1922/2000 06008KT 9999 NSW
日本の空港のMETAR・TAFへのリンク

RJTT 東京国際空港
RJAA 新東京国際空港
RJBB 関西国際空港
RJOO 大阪空港
RJGG 中部国際空港
RJCC 新千歳空港
RJFF 福岡空港
ROAH 那覇空港


RJEC 旭川空港
RJCH 函館空港
RJCK 釧路空港
RJCM 女満別空港
RJCB 帯広空港
RJSA 青森空港
RJSS 仙台空港
RJSK 秋田空港
RJSF 福島空港
RJAH 茨城空港
RJSN 新潟空港
RJNT 富山空港
RJNK 小松飛行場
RJNS 静岡空港
RJOH 美保飛行場
RJOC 出雲空港
RJOB 岡山空港
RJOA 広島空港
RJOI 岩国飛行場
RJOT 高松空港
RJOM 松山空港
RJOK 高知空港
RJFR 北九州空港
RJFT 熊本空港
RJFU 長崎空港
RJFS 佐賀空港
RJFO 大分空港
RJFM 宮崎空港
RJFK 鹿児島空港
ROIG 石垣島空港
RJTY 横田飛行場
ROTM 普天間飛行場
RODN 嘉手納飛行場